Terminal Aerodrome Forecast
Issued by NWS Grand Forks, ND

Home | Current Version | Previous Version | Text Only | Print | Product List | Glossary Off
Versions: 1 2 3 4 5 6 7 8 9 10 11 12 13 14 15 16 17 18 19 20 21

000
FTUS43 KFGF 251720
TAFFAR
TAF
KFAR 251720Z 2518/2618 36017G28KT P6SM OVC015
      TEMPO 2518/2521 OVC010
     FM260200 01016G24KT P6SM OVC010
      TEMPO 2602/2606 4SM -SN
     FM260600 01016G24KT 4SM -SN OVC008
     FM261500 36015G24KT P6SM OVC010=

USA.gov is the U.S. government's official web portal to all federal, state and local government web resources and services.